sensor_id;sensor_type;location;lat;lon;timestamp;P1;durP1;ratioP1;P2;durP2;ratioP2
53674;SDS011;39574;50.534;8.500;2022-12-18T00:04:14;45.9;;;18.6;;
53674;SDS011;39574;50.534;8.500;2022-12-18T00:09:11;44.4;;;18.0;;
53674;SDS011;39574;50.534;8.500;2022-12-18T00:14:09;44.1;;;17.7;;
53674;SDS011;39574;50.534;8.500;2022-12-18T00:19:08;44.2;;;17.6;;
53674;SDS011;39574;50.534;8.500;2022-12-18T00:24:05;44.9;;;17.8;;
53674;SDS011;39574;50.534;8.500;2022-12-18T00:29:05;45.5;;;18.1;;
53674;SDS011;39574;50.534;8.500;2022-12-18T00:34:02;46.8;;;18.9;;
53674;SDS011;39574;50.534;8.500;2022-12-18T00:39:02;48.4;;;18.9;;
53674;SDS011;39574;50.534;8.500;2022-12-18T00:43:58;47.0;;;18.5;;
53674;SDS011;39574;50.534;8.500;2022-12-18T00:48:57;47.1;;;18.3;;
53674;SDS011;39574;50.534;8.500;2022-12-18T00:53:55;46.3;;;18.3;;
53674;SDS011;39574;50.534;8.500;2022-12-18T00:58:53;44.9;;;18.3;;
53674;SDS011;39574;50.534;8.500;2022-12-18T01:03:51;47.9;;;18.8;;
53674;SDS011;39574;50.534;8.500;2022-12-18T01:08:50;48.6;;;19.1;;
53674;SDS011;39574;50.534;8.500;2022-12-18T01:13:48;48.8;;;19.0;;
53674;SDS011;39574;50.534;8.500;2022-12-18T01:18:46;48.2;;;18.9;;
53674;SDS011;39574;50.534;8.500;2022-12-18T01:23:44;47.9;;;18.5;;
53674;SDS011;39574;50.534;8.500;2022-12-18T01:28:43;48.1;;;18.5;;
53674;SDS011;39574;50.534;8.500;2022-12-18T01:33:41;47.0;;;18.4;;
53674;SDS011;39574;50.534;8.500;2022-12-18T01:38:39;47.5;;;19.1;;
53674;SDS011;39574;50.534;8.500;2022-12-18T01:43:46;48.7;;;19.1;;
53674;SDS011;39574;50.534;8.500;2022-12-18T01:48:35;47.7;;;18.6;;
53674;SDS011;39574;50.534;8.500;2022-12-18T01:53:34;46.5;;;18.0;;
53674;SDS011;39574;50.534;8.500;2022-12-18T01:58:32;48.4;;;18.4;;
53674;SDS011;39574;50.534;8.500;2022-12-18T02:03:30;45.5;;;17.8;;
53674;SDS011;39574;50.534;8.500;2022-12-18T02:08:29;45.0;;;17.4;;
53674;SDS011;39574;50.534;8.500;2022-12-18T02:13:28;42.8;;;16.6;;
53674;SDS011;39574;50.534;8.500;2022-12-18T02:18:26;43.3;;;16.2;;
53674;SDS011;39574;50.534;8.500;2022-12-18T02:23:25;43.0;;;16.4;;
53674;SDS011;39574;50.534;8.500;2022-12-18T02:28:22;43.2;;;16.9;;
53674;SDS011;39574;50.534;8.500;2022-12-18T02:33:20;43.6;;;17.1;;
53674;SDS011;39574;50.534;8.500;2022-12-18T02:38:18;41.7;;;17.0;;
53674;SDS011;39574;50.534;8.500;2022-12-18T02:43:16;40.6;;;16.6;;
53674;SDS011;39574;50.534;8.500;2022-12-18T02:48:14;40.7;;;16.9;;
53674;SDS011;39574;50.534;8.500;2022-12-18T02:53:14;41.9;;;17.2;;
53674;SDS011;39574;50.534;8.500;2022-12-18T02:58:12;41.1;;;16.6;;
53674;SDS011;39574;50.534;8.500;2022-12-18T03:03:11;39.5;;;16.5;;
53674;SDS011;39574;50.534;8.500;2022-12-18T03:08:07;37.4;;;15.7;;
53674;SDS011;39574;50.534;8.500;2022-12-18T03:13:06;36.2;;;15.4;;
53674;SDS011;39574;50.534;8.500;2022-12-18T03:18:04;34.9;;;14.7;;
53674;SDS011;39574;50.534;8.500;2022-12-18T03:23:03;33.8;;;14.6;;
53674;SDS011;39574;50.534;8.500;2022-12-18T03:28:00;38.0;;;16.0;;
53674;SDS011;39574;50.534;8.500;2022-12-18T03:33:00;39.8;;;16.6;;
53674;SDS011;39574;50.534;8.500;2022-12-18T03:37:57;40.7;;;16.8;;
53674;SDS011;39574;50.534;8.500;2022-12-18T03:42:56;41.4;;;17.0;;
53674;SDS011;39574;50.534;8.500;2022-12-18T03:47:57;41.7;;;16.8;;
53674;SDS011;39574;50.534;8.500;2022-12-18T03:52:52;39.9;;;16.6;;
53674;SDS011;39574;50.534;8.500;2022-12-18T03:57:49;39.9;;;16.7;;
53674;SDS011;39574;50.534;8.500;2022-12-18T04:02:48;39.4;;;16.6;;
53674;SDS011;39574;50.534;8.500;2022-12-18T04:07:47;39.3;;;16.7;;
53674;SDS011;39574;50.534;8.500;2022-12-18T04:12:44;37.5;;;15.8;;
53674;SDS011;39574;50.534;8.500;2022-12-18T04:17:43;36.4;;;15.4;;
53674;SDS011;39574;50.534;8.500;2022-12-18T04:22:40;35.2;;;15.2;;
53674;SDS011;39574;50.534;8.500;2022-12-18T04:27:39;34.9;;;14.8;;
53674;SDS011;39574;50.534;8.500;2022-12-18T04:32:37;36.0;;;14.9;;
53674;SDS011;39574;50.534;8.500;2022-12-18T04:37:35;37.9;;;15.3;;
53674;SDS011;39574;50.534;8.500;2022-12-18T04:42:33;43.7;;;16.6;;
53674;SDS011;39574;50.534;8.500;2022-12-18T04:47:31;42.8;;;16.6;;
53674;SDS011;39574;50.534;8.500;2022-12-18T04:52:29;41.9;;;16.4;;
53674;SDS011;39574;50.534;8.500;2022-12-18T04:57:28;40.9;;;16.4;;
53674;SDS011;39574;50.534;8.500;2022-12-18T05:02:26;36.8;;;15.5;;
53674;SDS011;39574;50.534;8.500;2022-12-18T05:07:24;34.9;;;15.1;;
53674;SDS011;39574;50.534;8.500;2022-12-18T05:12:22;36.6;;;15.1;;
53674;SDS011;39574;50.534;8.500;2022-12-18T05:17:20;36.0;;;14.8;;
53674;SDS011;39574;50.534;8.500;2022-12-18T05:22:19;35.0;;;14.5;;
53674;SDS011;39574;50.534;8.500;2022-12-18T05:27:17;35.3;;;15.3;;
53674;SDS011;39574;50.534;8.500;2022-12-18T05:32:15;37.2;;;15.7;;
53674;SDS011;39574;50.534;8.500;2022-12-18T05:37:13;38.8;;;15.9;;
53674;SDS011;39574;50.534;8.500;2022-12-18T05:42:12;37.6;;;16.0;;
53674;SDS011;39574;50.534;8.500;2022-12-18T05:47:11;39.0;;;16.1;;
53674;SDS011;39574;50.534;8.500;2022-12-18T05:52:08;37.6;;;15.4;;
53674;SDS011;39574;50.534;8.500;2022-12-18T05:57:06;37.0;;;15.4;;
53674;SDS011;39574;50.534;8.500;2022-12-18T06:02:04;38.4;;;15.6;;
53674;SDS011;39574;50.534;8.500;2022-12-18T06:07:03;38.1;;;15.9;;
53674;SDS011;39574;50.534;8.500;2022-12-18T06:12:01;39.5;;;16.3;;
53674;SDS011;39574;50.534;8.500;2022-12-18T06:16:59;40.4;;;16.7;;
53674;SDS011;39574;50.534;8.500;2022-12-18T06:21:57;39.4;;;16.5;;
53674;SDS011;39574;50.534;8.500;2022-12-18T06:26:56;38.3;;;15.9;;
53674;SDS011;39574;50.534;8.500;2022-12-18T06:31:54;38.7;;;15.8;;
53674;SDS011;39574;50.534;8.500;2022-12-18T06:36:52;37.2;;;15.4;;
53674;SDS011;39574;50.534;8.500;2022-12-18T06:41:50;38.5;;;15.6;;
53674;SDS011;39574;50.534;8.500;2022-12-18T06:46:48;39.1;;;16.1;;
53674;SDS011;39574;50.534;8.500;2022-12-18T06:51:47;38.0;;;15.7;;
53674;SDS011;39574;50.534;8.500;2022-12-18T06:56:45;38.4;;;16.2;;
53674;SDS011;39574;50.534;8.500;2022-12-18T07:01:43;40.1;;;16.6;;
53674;SDS011;39574;50.534;8.500;2022-12-18T07:06:41;43.1;;;18.8;;
53674;SDS011;39574;50.534;8.500;2022-12-18T07:11:39;42.8;;;18.1;;
53674;SDS011;39574;50.534;8.500;2022-12-18T07:16:37;40.8;;;17.6;;
53674;SDS011;39574;50.534;8.500;2022-12-18T07:21:36;39.7;;;17.4;;
53674;SDS011;39574;50.534;8.500;2022-12-18T07:26:34;38.9;;;16.8;;
53674;SDS011;39574;50.534;8.500;2022-12-18T07:31:32;40.5;;;17.2;;
53674;SDS011;39574;50.534;8.500;2022-12-18T07:36:33;41.4;;;17.1;;
53674;SDS011;39574;50.534;8.500;2022-12-18T07:41:28;42.0;;;16.9;;
53674;SDS011;39574;50.534;8.500;2022-12-18T07:46:27;40.3;;;16.5;;
53674;SDS011;39574;50.534;8.500;2022-12-18T07:51:25;38.5;;;15.8;;
53674;SDS011;39574;50.534;8.500;2022-12-18T07:56:23;37.9;;;15.9;;
53674;SDS011;39574;50.534;8.500;2022-12-18T08:01:21;37.8;;;15.9;;
53674;SDS011;39574;50.534;8.500;2022-12-18T08:06:19;38.5;;;16.2;;
53674;SDS011;39574;50.534;8.500;2022-12-18T08:11:17;39.7;;;16.9;;
53674;SDS011;39574;50.534;8.500;2022-12-18T08:16:16;41.1;;;17.2;;
53674;SDS011;39574;50.534;8.500;2022-12-18T08:21:15;39.4;;;18.0;;
53674;SDS011;39574;50.534;8.500;2022-12-18T08:26:12;38.7;;;18.6;;
53674;SDS011;39574;50.534;8.500;2022-12-18T08:31:10;42.2;;;19.8;;
53674;SDS011;39574;50.534;8.500;2022-12-18T08:36:09;44.7;;;21.0;;
53674;SDS011;39574;50.534;8.500;2022-12-18T08:41:07;47.6;;;22.7;;
53674;SDS011;39574;50.534;8.500;2022-12-18T08:46:05;55.6;;;26.2;;
53674;SDS011;39574;50.534;8.500;2022-12-18T08:56:01;51.8;;;24.3;;
53674;SDS011;39574;50.534;8.500;2022-12-18T09:01:00;54.6;;;25.2;;
53674;SDS011;39574;50.534;8.500;2022-12-18T09:05:58;53.4;;;24.4;;
53674;SDS011;39574;50.534;8.500;2022-12-18T09:10:56;51.0;;;24.4;;
53674;SDS011;39574;50.534;8.500;2022-12-18T09:15:54;52.0;;;25.7;;
53674;SDS011;39574;50.534;8.500;2022-12-18T09:20:53;53.8;;;27.2;;
53674;SDS011;39574;50.534;8.500;2022-12-18T09:25:51;56.3;;;28.9;;
53674;SDS011;39574;50.534;8.500;2022-12-18T09:30:49;51.3;;;26.9;;
53674;SDS011;39574;50.534;8.500;2022-12-18T09:35:48;49.0;;;25.3;;
53674;SDS011;39574;50.534;8.500;2022-12-18T09:40:47;45.6;;;23.7;;
53674;SDS011;39574;50.534;8.500;2022-12-18T09:45:46;45.3;;;23.5;;
53674;SDS011;39574;50.534;8.500;2022-12-18T09:50:43;45.9;;;23.9;;
53674;SDS011;39574;50.534;8.500;2022-12-18T09:55:42;44.8;;;23.6;;
53674;SDS011;39574;50.534;8.500;2022-12-18T10:00:40;46.6;;;24.5;;
53674;SDS011;39574;50.534;8.500;2022-12-18T10:05:41;47.0;;;24.5;;
53674;SDS011;39574;50.534;8.500;2022-12-18T10:10:38;46.3;;;23.9;;
53674;SDS011;39574;50.534;8.500;2022-12-18T10:15:36;45.9;;;23.5;;
53674;SDS011;39574;50.534;8.500;2022-12-18T10:20:37;45.6;;;23.3;;
53674;SDS011;39574;50.534;8.500;2022-12-18T10:25:33;43.7;;;22.2;;
53674;SDS011;39574;50.534;8.500;2022-12-18T10:30:30;48.2;;;23.2;;
53674;SDS011;39574;50.534;8.500;2022-12-18T10:35:28;45.1;;;21.4;;
53674;SDS011;39574;50.534;8.500;2022-12-18T10:40:27;42.3;;;19.3;;
53674;SDS011;39574;50.534;8.500;2022-12-18T10:45:25;39.1;;;18.4;;
53674;SDS011;39574;50.534;8.500;2022-12-18T10:50:24;35.8;;;17.2;;
53674;SDS011;39574;50.534;8.500;2022-12-18T10:55:22;34.8;;;16.7;;
53674;SDS011;39574;50.534;8.500;2022-12-18T11:00:22;36.7;;;17.9;;
53674;SDS011;39574;50.534;8.500;2022-12-18T11:05:23;36.2;;;17.4;;
53674;SDS011;39574;50.534;8.500;2022-12-18T11:10:17;35.1;;;16.9;;
53674;SDS011;39574;50.534;8.500;2022-12-18T11:15:16;35.5;;;17.3;;
53674;SDS011;39574;50.534;8.500;2022-12-18T11:20:19;38.9;;;18.1;;
53674;SDS011;39574;50.534;8.500;2022-12-18T11:25:18;37.7;;;18.4;;
53674;SDS011;39574;50.534;8.500;2022-12-18T11:30:20;36.6;;;18.3;;
53674;SDS011;39574;50.534;8.500;2022-12-18T11:35:11;37.4;;;18.3;;
53674;SDS011;39574;50.534;8.500;2022-12-18T11:40:10;35.8;;;18.1;;
53674;SDS011;39574;50.534;8.500;2022-12-18T11:45:21;36.5;;;18.4;;
53674;SDS011;39574;50.534;8.500;2022-12-18T11:50:09;37.4;;;18.6;;
53674;SDS011;39574;50.534;8.500;2022-12-18T11:55:04;37.4;;;18.5;;
53674;SDS011;39574;50.534;8.500;2022-12-18T12:00:04;38.8;;;19.3;;
53674;SDS011;39574;50.534;8.500;2022-12-18T12:05:05;42.6;;;20.6;;
53674;SDS011;39574;50.534;8.500;2022-12-18T12:10:00;42.0;;;20.1;;
53674;SDS011;39574;50.534;8.500;2022-12-18T12:14:57;40.8;;;19.8;;
53674;SDS011;39574;50.534;8.500;2022-12-18T12:19:56;40.6;;;19.8;;
53674;SDS011;39574;50.534;8.500;2022-12-18T12:24:55;40.6;;;20.0;;
53674;SDS011;39574;50.534;8.500;2022-12-18T12:29:55;42.0;;;20.3;;
53674;SDS011;39574;50.534;8.500;2022-12-18T12:34:53;41.8;;;20.3;;
53674;SDS011;39574;50.534;8.500;2022-12-18T12:39:48;39.7;;;19.8;;
53674;SDS011;39574;50.534;8.500;2022-12-18T12:44:47;41.5;;;20.7;;
53674;SDS011;39574;50.534;8.500;2022-12-18T12:49:44;41.0;;;20.3;;
53674;SDS011;39574;50.534;8.500;2022-12-18T12:54:42;51.2;;;22.9;;
53674;SDS011;39574;50.534;8.500;2022-12-18T12:59:42;49.5;;;22.6;;
53674;SDS011;39574;50.534;8.500;2022-12-18T13:04:41;49.0;;;22.5;;
53674;SDS011;39574;50.534;8.500;2022-12-18T13:10:10;47.3;;;21.9;;
53674;SDS011;39574;50.534;8.500;2022-12-18T13:14:37;46.2;;;22.0;;
53674;SDS011;39574;50.534;8.500;2022-12-18T13:19:34;46.3;;;22.0;;
53674;SDS011;39574;50.534;8.500;2022-12-18T13:24:33;47.3;;;22.5;;
53674;SDS011;39574;50.534;8.500;2022-12-18T13:29:40;49.3;;;23.6;;
53674;SDS011;39574;50.534;8.500;2022-12-18T13:34:30;50.2;;;23.0;;
53674;SDS011;39574;50.534;8.500;2022-12-18T13:39:31;51.9;;;23.1;;
53674;SDS011;39574;50.534;8.500;2022-12-18T13:44:30;51.7;;;23.4;;
53674;SDS011;39574;50.534;8.500;2022-12-18T13:49:25;51.5;;;23.6;;
53674;SDS011;39574;50.534;8.500;2022-12-18T13:59:22;51.2;;;23.8;;
53674;SDS011;39574;50.534;8.500;2022-12-18T14:04:23;51.6;;;23.6;;
53674;SDS011;39574;50.534;8.500;2022-12-18T14:09:21;51.9;;;23.6;;
53674;SDS011;39574;50.534;8.500;2022-12-18T14:14:17;54.8;;;24.4;;
53674;SDS011;39574;50.534;8.500;2022-12-18T14:19:17;56.4;;;25.3;;
53674;SDS011;39574;50.534;8.500;2022-12-18T14:24:25;54.8;;;24.6;;
53674;SDS011;39574;50.534;8.500;2022-12-18T14:29:34;57.1;;;25.1;;
53674;SDS011;39574;50.534;8.500;2022-12-18T14:34:14;56.8;;;24.8;;
53674;SDS011;39574;50.534;8.500;2022-12-18T14:39:13;59.0;;;25.2;;
53674;SDS011;39574;50.534;8.500;2022-12-18T14:44:10;57.9;;;24.4;;
53674;SDS011;39574;50.534;8.500;2022-12-18T14:49:17;55.1;;;23.4;;
53674;SDS011;39574;50.534;8.500;2022-12-18T14:54:15;54.9;;;23.2;;
53674;SDS011;39574;50.534;8.500;2022-12-18T14:59:17;54.4;;;23.0;;
53674;SDS011;39574;50.534;8.500;2022-12-18T15:04:00;56.4;;;23.6;;
53674;SDS011;39574;50.534;8.500;2022-12-18T15:08:58;57.4;;;23.7;;
53674;SDS011;39574;50.534;8.500;2022-12-18T15:18:56;56.1;;;23.5;;
53674;SDS011;39574;50.534;8.500;2022-12-18T15:23:54;57.3;;;24.1;;
53674;SDS011;39574;50.534;8.500;2022-12-18T15:29:04;55.1;;;24.0;;
53674;SDS011;39574;50.534;8.500;2022-12-18T15:34:10;54.5;;;24.1;;
53674;SDS011;39574;50.534;8.500;2022-12-18T15:38:48;56.4;;;25.1;;
53674;SDS011;39574;50.534;8.500;2022-12-18T15:48:46;57.0;;;24.8;;
53674;SDS011;39574;50.534;8.500;2022-12-18T15:53:45;60.6;;;25.2;;
53674;SDS011;39574;50.534;8.500;2022-12-18T15:58:43;60.3;;;25.1;;
53674;SDS011;39574;50.534;8.500;2022-12-18T16:03:51;59.6;;;24.8;;
53674;SDS011;39574;50.534;8.500;2022-12-18T16:08:38;60.9;;;26.4;;
53674;SDS011;39574;50.534;8.500;2022-12-18T16:13:38;63.5;;;27.5;;
53674;SDS011;39574;50.534;8.500;2022-12-18T16:18:37;59.8;;;26.5;;
53674;SDS011;39574;50.534;8.500;2022-12-18T16:23:35;67.0;;;30.6;;
53674;SDS011;39574;50.534;8.500;2022-12-18T16:28:32;66.5;;;29.9;;
53674;SDS011;39574;50.534;8.500;2022-12-18T16:33:39;64.3;;;28.9;;
53674;SDS011;39574;50.534;8.500;2022-12-18T16:38:41;60.2;;;27.4;;
53674;SDS011;39574;50.534;8.500;2022-12-18T16:48:26;57.6;;;26.0;;
53674;SDS011;39574;50.534;8.500;2022-12-18T16:53:27;56.5;;;25.8;;
53674;SDS011;39574;50.534;8.500;2022-12-18T16:58:22;56.3;;;25.0;;
53674;SDS011;39574;50.534;8.500;2022-12-18T17:03:21;59.3;;;25.3;;
53674;SDS011;39574;50.534;8.500;2022-12-18T17:08:27;58.2;;;24.2;;
53674;SDS011;39574;50.534;8.500;2022-12-18T17:13:29;55.8;;;23.5;;
53674;SDS011;39574;50.534;8.500;2022-12-18T17:18:16;54.5;;;23.4;;
53674;SDS011;39574;50.534;8.500;2022-12-18T17:23:15;54.7;;;23.9;;
53674;SDS011;39574;50.534;8.500;2022-12-18T17:28:12;55.7;;;23.9;;
53674;SDS011;39574;50.534;8.500;2022-12-18T17:33:10;56.5;;;25.0;;
53674;SDS011;39574;50.534;8.500;2022-12-18T17:38:10;57.0;;;24.9;;
53674;SDS011;39574;50.534;8.500;2022-12-18T17:48:18;62.9;;;28.8;;
53674;SDS011;39574;50.534;8.500;2022-12-18T17:53:21;63.8;;;29.7;;
53674;SDS011;39574;50.534;8.500;2022-12-18T17:58:05;59.3;;;27.3;;
53674;SDS011;39574;50.534;8.500;2022-12-18T18:03:02;55.1;;;25.3;;
53674;SDS011;39574;50.534;8.500;2022-12-18T18:07:59;54.1;;;25.1;;
53674;SDS011;39574;50.534;8.500;2022-12-18T18:12:58;54.6;;;24.6;;
53674;SDS011;39574;50.534;8.500;2022-12-18T18:18:06;58.9;;;26.2;;
53674;SDS011;39574;50.534;8.500;2022-12-18T18:23:03;58.0;;;25.2;;
53674;SDS011;39574;50.534;8.500;2022-12-18T18:27:54;57.6;;;25.2;;
53674;SDS011;39574;50.534;8.500;2022-12-18T18:32:52;54.4;;;24.6;;
53674;SDS011;39574;50.534;8.500;2022-12-18T18:37:50;55.0;;;24.3;;
53674;SDS011;39574;50.534;8.500;2022-12-18T18:42:48;55.4;;;24.7;;
53674;SDS011;39574;50.534;8.500;2022-12-18T18:47:47;58.0;;;26.0;;
53674;SDS011;39574;50.534;8.500;2022-12-18T18:52:49;58.6;;;25.8;;
53674;SDS011;39574;50.534;8.500;2022-12-18T18:58:00;55.4;;;24.8;;
53674;SDS011;39574;50.534;8.500;2022-12-18T19:02:45;55.2;;;24.7;;
53674;SDS011;39574;50.534;8.500;2022-12-18T19:07:41;54.0;;;24.2;;
53674;SDS011;39574;50.534;8.500;2022-12-18T19:12:39;53.8;;;24.2;;
53674;SDS011;39574;50.534;8.500;2022-12-18T19:17:38;57.6;;;25.1;;
53674;SDS011;39574;50.534;8.500;2022-12-18T19:22:40;58.0;;;25.7;;
53674;SDS011;39574;50.534;8.500;2022-12-18T19:27:34;54.8;;;24.4;;
53674;SDS011;39574;50.534;8.500;2022-12-18T19:32:41;54.5;;;24.1;;
53674;SDS011;39574;50.534;8.500;2022-12-18T19:37:33;59.0;;;26.6;;
53674;SDS011;39574;50.534;8.500;2022-12-18T19:42:29;63.3;;;28.9;;
53674;SDS011;39574;50.534;8.500;2022-12-18T19:57:24;66.6;;;29.9;;
53674;SDS011;39574;50.534;8.500;2022-12-18T20:02:23;62.9;;;28.4;;
53674;SDS011;39574;50.534;8.500;2022-12-18T20:07:21;63.3;;;27.8;;
53674;SDS011;39574;50.534;8.500;2022-12-18T20:12:19;60.6;;;28.0;;
53674;SDS011;39574;50.534;8.500;2022-12-18T20:17:18;59.9;;;27.3;;
53674;SDS011;39574;50.534;8.500;2022-12-18T20:22:16;59.4;;;26.5;;
53674;SDS011;39574;50.534;8.500;2022-12-18T20:27:15;58.2;;;26.0;;
53674;SDS011;39574;50.534;8.500;2022-12-18T20:32:13;55.8;;;24.4;;
53674;SDS011;39574;50.534;8.500;2022-12-18T20:37:12;54.1;;;23.4;;
53674;SDS011;39574;50.534;8.500;2022-12-18T20:42:10;51.5;;;22.6;;
53674;SDS011;39574;50.534;8.500;2022-12-18T20:47:08;51.7;;;23.1;;
53674;SDS011;39574;50.534;8.500;2022-12-18T20:52:07;53.9;;;24.0;;
53674;SDS011;39574;50.534;8.500;2022-12-18T20:57:06;53.4;;;24.3;;
53674;SDS011;39574;50.534;8.500;2022-12-18T21:02:06;53.8;;;24.8;;
53674;SDS011;39574;50.534;8.500;2022-12-18T21:07:02;52.9;;;24.7;;
53674;SDS011;39574;50.534;8.500;2022-12-18T21:12:01;52.5;;;24.5;;
53674;SDS011;39574;50.534;8.500;2022-12-18T21:16:59;53.6;;;25.0;;
53674;SDS011;39574;50.534;8.500;2022-12-18T21:21:58;53.7;;;24.9;;
53674;SDS011;39574;50.534;8.500;2022-12-18T21:26:56;54.6;;;25.3;;
53674;SDS011;39574;50.534;8.500;2022-12-18T21:31:54;55.1;;;25.5;;
53674;SDS011;39574;50.534;8.500;2022-12-18T21:36:54;55.0;;;25.2;;
53674;SDS011;39574;50.534;8.500;2022-12-18T21:41:51;53.5;;;24.5;;
53674;SDS011;39574;50.534;8.500;2022-12-18T21:46:50;51.9;;;24.1;;
53674;SDS011;39574;50.534;8.500;2022-12-18T21:51:48;51.0;;;23.5;;
53674;SDS011;39574;50.534;8.500;2022-12-18T21:56:47;50.8;;;23.3;;
53674;SDS011;39574;50.534;8.500;2022-12-18T22:01:45;51.9;;;23.4;;
53674;SDS011;39574;50.534;8.500;2022-12-18T22:06:44;53.8;;;24.2;;
53674;SDS011;39574;50.534;8.500;2022-12-18T22:11:42;55.5;;;24.8;;
53674;SDS011;39574;50.534;8.500;2022-12-18T22:16:41;55.6;;;24.5;;
53674;SDS011;39574;50.534;8.500;2022-12-18T22:21:39;53.5;;;24.1;;
53674;SDS011;39574;50.534;8.500;2022-12-18T22:26:37;52.3;;;23.6;;
53674;SDS011;39574;50.534;8.500;2022-12-18T22:31:36;49.8;;;22.7;;
53674;SDS011;39574;50.534;8.500;2022-12-18T22:36:34;50.5;;;22.4;;
53674;SDS011;39574;50.534;8.500;2022-12-18T22:41:32;51.1;;;22.7;;
53674;SDS011;39574;50.534;8.500;2022-12-18T22:46:32;51.1;;;22.7;;
53674;SDS011;39574;50.534;8.500;2022-12-18T22:51:29;53.0;;;23.2;;
53674;SDS011;39574;50.534;8.500;2022-12-18T22:56:28;51.8;;;22.6;;
53674;SDS011;39574;50.534;8.500;2022-12-18T23:06:25;49.4;;;21.8;;
53674;SDS011;39574;50.534;8.500;2022-12-18T23:11:23;53.6;;;23.5;;
53674;SDS011;39574;50.534;8.500;2022-12-18T23:16:23;52.4;;;23.1;;
53674;SDS011;39574;50.534;8.500;2022-12-18T23:21:20;49.7;;;22.5;;
53674;SDS011;39574;50.534;8.500;2022-12-18T23:26:19;47.9;;;21.8;;
53674;SDS011;39574;50.534;8.500;2022-12-18T23:31:18;47.5;;;21.7;;
53674;SDS011;39574;50.534;8.500;2022-12-18T23:36:15;48.0;;;21.7;;
53674;SDS011;39574;50.534;8.500;2022-12-18T23:41:14;49.2;;;22.3;;
53674;SDS011;39574;50.534;8.500;2022-12-18T23:46:13;50.4;;;22.0;;
53674;SDS011;39574;50.534;8.500;2022-12-18T23:51:11;50.6;;;22.2;;
53674;SDS011;39574;50.534;8.500;2022-12-18T23:56:10;50.8;;;22.4;;
